Time;durP1;ratioP1;P1;durP2;ratioP2;P2;SDS_P1;SDS_P2;PMS_P1;PMS_P2;Temp;Humidity;BMP_temperature;BMP_pressure;BME280_temperature;BME280_humidity;BME280_pressure;Samples;Min_cycle;Max_cycle;Signal;HPM_P1;HPM_P2
2023/11/04 00:01:06;;;;;;;5.00;1.40;;;;;;;10.51;57.74;97006.47;4952167;28;20047;-77
2023/11/04 00:03:44;;;;;;;3.90;0.93;;;;;;;10.51;58.02;97003.03;4952392;28;20055;-76
2023/11/04 00:06:11;;;;;;;2.33;1.10;;;;;;;10.50;57.95;96998.75;4952130;28;20492;-76
2023/11/04 00:08:40;;;;;;;6.13;1.50;;;;;;;10.50;57.95;97004.03;4952335;28;20118;-76
2023/11/04 00:11:07;;;;;;;3.65;1.30;;;;;;;10.50;57.82;96993.50;4952086;28;20130;-76
2023/11/04 00:13:33;;;;;;;3.55;1.23;;;;;;;10.48;58.13;96996.28;4953573;28;20483;-76
2023/11/04 00:16:03;;;;;;;3.53;1.30;;;;;;;10.49;58.32;96997.09;4955513;28;20114;-77
2023/11/04 00:18:29;;;;;;;4.70;1.30;;;;;;;10.49;57.56;96995.31;4954558;29;20058;-76
2023/11/04 00:20:56;;;;;;;3.58;1.30;;;;;;;10.49;57.89;96997.94;4955290;28;20737;-77
2023/11/04 00:23:23;;;;;;;4.72;1.30;;;;;;;10.48;57.60;96990.19;4955446;28;20051;-76
2023/11/04 00:25:49;;;;;;;2.50;1.27;;;;;;;10.46;57.66;96992.97;4955447;28;20055;-76
2023/11/04 00:28:19;;;;;;;3.95;1.17;;;;;;;10.46;57.60;96998.22;4955382;28;20055;-76
2023/11/04 00:30:45;;;;;;;2.92;0.98;;;;;;;10.42;57.55;96999.50;4955110;29;20055;-77
2023/11/04 00:33:14;;;;;;;1.77;0.77;;;;;;;10.39;57.64;96998.00;4955467;28;20059;-76
2023/11/04 00:35:41;;;;;;;2.90;1.00;;;;;;;10.36;57.63;96994.88;4955500;28;20074;-77
2023/11/04 00:38:08;;;;;;;4.00;1.20;;;;;;;10.33;57.69;96995.16;4955245;29;20087;-76
2023/11/04 00:40:35;;;;;;;2.28;0.98;;;;;;;10.29;57.73;97000.72;4954851;28;20051;-77
2023/11/04 00:43:02;;;;;;;3.70;0.80;;;;;;;10.25;57.74;96996.75;4953935;29;20054;-76
2023/11/04 00:45:29;;;;;;;1.50;0.98;;;;;;;10.23;57.76;97001.34;4955069;28;20519;-76
2023/11/04 00:47:55;;;;;;;4.07;1.40;;;;;;;10.21;57.72;96986.72;4955124;28;20057;-77
2023/11/04 00:50:22;;;;;;;4.45;1.10;;;;;;;10.17;57.73;96992.28;4954762;28;20483;-77
2023/11/04 00:52:48;;;;;;;5.47;1.10;;;;;;;10.15;57.85;96988.97;4955004;28;20102;-76
2023/11/04 00:55:17;;;;;;;3.97;1.30;;;;;;;10.13;57.76;96990.94;4954967;28;20066;-76
2023/11/04 00:57:44;;;;;;;4.90;1.20;;;;;;;10.12;57.99;96991.06;4954754;29;20137;-75
2023/11/04 01:00:11;;;;;;;2.85;1.10;;;;;;;10.08;57.91;96985.31;4955046;28;20137;-76
2023/11/04 01:02:38;;;;;;;2.88;1.20;;;;;;;10.07;57.96;96988.09;4954908;28;20061;-76
2023/11/04 01:05:05;;;;;;;4.25;1.30;;;;;;;10.04;57.92;96978.72;4954885;28;20047;-76
2023/11/04 01:07:31;;;;;;;5.85;1.63;;;;;;;10.01;57.79;96979.84;4954614;28;20550;-76
2023/11/04 01:09:58;;;;;;;4.20;1.35;;;;;;;9.97;58.06;96989.00;4954465;28;20086;-76
2023/11/04 01:12:25;;;;;;;2.75;1.30;;;;;;;9.94;57.98;96988.50;4954845;28;20149;-77
2023/11/04 01:14:51;;;;;;;2.85;1.33;;;;;;;9.90;58.09;96978.28;4954723;28;20047;-76
2023/11/04 01:17:18;;;;;;;4.82;1.40;;;;;;;9.87;58.12;96985.66;4954626;28;20059;-77
2023/11/04 01:19:44;;;;;;;5.18;1.77;;;;;;;9.84;58.26;96993.81;4954361;28;20051;-76
2023/11/04 01:22:11;;;;;;;5.75;1.70;;;;;;;9.81;58.42;96986.25;4954358;28;20048;-76
2023/11/04 01:24:42;;;;;;;5.82;1.50;;;;;;;9.78;58.29;96990.00;4953634;28;20087;-76
2023/11/04 01:27:09;;;;;;;4.68;1.42;;;;;;;9.75;58.58;96985.03;4954205;28;20483;-76
2023/11/04 01:29:36;;;;;;;3.40;1.52;;;;;;;9.73;58.70;96985.22;4954188;28;20079;-76
2023/11/04 01:32:04;;;;;;;8.65;2.00;;;;;;;9.74;58.95;96975.50;4954169;29;20134;-76
2023/11/04 01:34:31;;;;;;;6.53;1.88;;;;;;;9.74;59.03;96978.13;4954328;28;20117;-76
2023/11/04 01:36:58;;;;;;;3.90;1.50;;;;;;;9.77;59.14;96980.47;4954166;28;20055;-76
2023/11/04 01:39:25;;;;;;;3.70;1.33;;;;;;;9.79;59.32;96978.50;4954232;28;20054;-76
2023/11/04 01:41:52;;;;;;;6.68;1.88;;;;;;;9.83;59.31;96976.41;4953993;28;20053;-76
2023/11/04 01:44:19;;;;;;;4.03;1.65;;;;;;;9.84;59.16;96978.91;4954309;28;20078;-76
2023/11/04 01:46:45;;;;;;;8.80;1.90;;;;;;;9.87;59.18;96973.31;4952826;29;20390;-76
2023/11/04 01:49:12;;;;;;;7.22;2.00;;;;;;;9.89;59.18;96971.38;4953958;28;20048;-75
2023/11/04 01:51:39;;;;;;;6.88;1.50;;;;;;;9.92;59.15;96975.50;4953649;28;20055;-76
2023/11/04 01:54:06;;;;;;;4.35;1.70;;;;;;;9.94;59.16;96967.47;4953764;28;20083;-77
2023/11/04 01:56:35;;;;;;;5.63;1.55;;;;;;;9.94;59.17;96973.53;4953985;28;20051;-76
2023/11/04 01:59:03;;;;;;;5.45;1.42;;;;;;;9.98;59.08;96966.19;4952829;29;20051;-76
2023/11/04 02:01:30;;;;;;;4.03;1.27;;;;;;;9.99;59.19;96975.72;4953474;28;20047;-77
2023/11/04 02:03:58;;;;;;;5.40;1.80;;;;;;;10.00;59.29;96965.06;4953801;28;20070;-76
2023/11/04 02:06:24;;;;;;;3.22;1.17;;;;;;;10.03;59.31;96963.94;4953507;28;20051;-76
2023/11/04 02:08:51;;;;;;;7.05;2.03;;;;;;;10.04;59.30;96966.41;4953469;28;20055;-77
2023/11/04 02:11:18;;;;;;;7.20;1.30;;;;;;;10.07;59.07;96962.63;4953352;28;20059;-77
2023/11/04 02:13:44;;;;;;;8.13;1.60;;;;;;;10.10;59.01;96964.94;4953536;28;20424;-76
2023/11/04 02:16:11;;;;;;;2.75;1.35;;;;;;;10.12;59.18;96956.91;4953412;28;20480;-76
2023/11/04 02:18:38;;;;;;;7.93;1.75;;;;;;;10.13;58.85;96964.63;4953581;28;20055;-76
2023/11/04 02:21:05;;;;;;;6.25;1.63;;;;;;;10.13;59.06;96948.06;4953000;28;20051;-75
2023/11/04 02:23:32;;;;;;;7.15;1.55;;;;;;;10.14;58.91;96947.06;4953554;28;20055;-77
2023/11/04 02:25:59;;;;;;;3.97;1.55;;;;;;;10.15;58.87;96953.97;4953176;28;20050;-76
2023/11/04 02:28:26;;;;;;;8.15;1.33;;;;;;;10.13;58.90;96955.94;4952169;29;20518;-76
2023/11/04 02:30:52;;;;;;;4.50;1.70;;;;;;;10.12;59.03;96952.47;4951974;29;20051;-77
2023/11/04 02:33:19;;;;;;;3.47;1.00;;;;;;;10.12;59.09;96952.47;4952090;29;20043;-76
2023/11/04 02:35:46;;;;;;;3.00;1.30;;;;;;;10.11;59.10;96950.84;4953080;28;20050;-76
2023/11/04 02:38:12;;;;;;;5.05;1.30;;;;;;;10.11;59.15;96948.22;4953220;28;20067;-76
2023/11/04 02:40:39;;;;;;;2.55;1.10;;;;;;;10.13;59.29;96951.50;4952997;28;20492;-76
2023/11/04 02:43:06;;;;;;;4.78;1.02;;;;;;;10.13;59.21;96938.34;4953420;28;20047;-76
2023/11/04 02:45:34;;;;;;;2.55;1.15;;;;;;;10.13;59.08;96940.97;4952115;29;20073;-76
2023/11/04 02:48:01;;;;;;;2.97;1.30;;;;;;;10.15;59.27;96927.69;4952869;28;20415;-76
2023/11/04 02:50:28;;;;;;;5.07;1.10;;;;;;;10.15;59.03;96915.38;4951704;29;20625;-76
2023/11/04 02:52:55;;;;;;;5.35;1.60;;;;;;;10.16;59.06;96921.44;4953190;28;20522;-77
2023/11/04 02:55:22;;;;;;;2.53;1.20;;;;;;;10.17;59.21;96910.78;4953090;28;20098;-76
2023/11/04 02:57:48;;;;;;;5.38;1.10;;;;;;;10.19;59.10;96908.00;4952914;28;20059;-77
2023/11/04 03:00:15;;;;;;;4.78;1.10;;;;;;;10.21;59.18;96902.59;4957984;28;20122;-77
2023/11/04 03:02:42;;;;;;;3.90;1.10;;;;;;;10.22;59.18;96901.59;4970806;28;20551;-76
2023/11/04 03:05:09;;;;;;;1.73;0.80;;;;;;;10.25;59.24;96901.31;4970807;28;20168;-76
2023/11/04 03:07:35;;;;;;;3.17;1.23;;;;;;;10.25;59.15;96904.75;4972016;28;20054;-76
2023/11/04 03:10:04;;;;;;;2.58;1.30;;;;;;;10.27;59.15;96894.06;4971900;28;20046;-76
2023/11/04 03:12:31;;;;;;;1.58;0.90;;;;;;;10.28;59.25;96896.53;4970970;28;20059;-76
2023/11/04 03:14:58;;;;;;;2.10;0.90;;;;;;;10.30;59.05;96891.97;4972113;28;20504;-76
2023/11/04 03:17:26;;;;;;;4.55;1.08;;;;;;;10.31;59.13;96887.50;4970648;28;20058;-77
2023/11/04 03:19:52;;;;;;;2.00;0.82;;;;;;;10.34;59.11;96884.59;4970770;28;20117;-76
2023/11/04 03:22:19;;;;;;;2.28;1.00;;;;;;;10.34;59.05;96881.94;4971833;28;20125;-76
2023/11/04 03:24:46;;;;;;;1.52;0.80;;;;;;;10.35;59.07;96885.41;4972035;28;20487;-76
2023/11/04 03:27:12;;;;;;;3.90;0.90;;;;;;;10.37;59.06;96886.06;4971784;28;20084;-76
2023/11/04 03:29:39;;;;;;;6.65;1.00;;;;;;;10.38;59.19;96879.81;4971645;28;20073;-76
2023/11/04 03:32:06;;;;;;;3.55;0.95;;;;;;;10.40;59.13;96883.13;4970584;28;20168;-77
2023/11/04 03:34:33;;;;;;;3.53;0.95;;;;;;;10.40;59.15;96876.06;4971966;28;20043;-76
2023/11/04 03:37:02;;;;;;;1.90;0.90;;;;;;;10.43;59.00;96877.53;4971866;28;20047;-76
2023/11/04 03:39:30;;;;;;;2.22;0.80;;;;;;;10.46;58.67;96865.94;4971695;28;20047;-76
2023/11/04 03:41:56;;;;;;;4.50;0.95;;;;;;;10.47;59.05;96857.88;4970732;28;20134;-77
2023/11/04 03:44:23;;;;;;;1.50;0.80;;;;;;;10.49;58.90;96866.44;4972117;28;20051;-76
2023/11/04 03:46:50;;;;;;;1.38;0.60;;;;;;;10.50;58.86;96856.75;4971970;28;20062;-76
2023/11/04 03:49:16;;;;;;;4.18;0.60;;;;;;;10.51;58.97;96858.38;4974152;28;20051;-77
2023/11/04 03:51:43;;;;;;;5.20;1.00;;;;;;;10.52;58.96;96855.59;4975347;28;20061;-75
2023/11/04 03:54:10;;;;;;;1.55;0.88;;;;;;;10.53;58.96;96854.63;4975552;28;20624;-76
2023/11/04 03:56:36;;;;;;;1.63;0.90;;;;;;;10.54;58.84;96856.25;4975601;28;20812;-77
2023/11/04 03:59:03;;;;;;;2.53;0.70;;;;;;;10.56;58.78;96856.09;4975209;28;20062;-77
2023/11/04 04:01:38;;;;;;;4.22;0.70;;;;;;;10.53;58.96;96846.72;4975378;28;20054;-75
2023/11/04 04:04:05;;;;;;;1.92;1.00;;;;;;;10.58;58.87;96850.69;4975545;28;20122;-76
2023/11/04 04:06:31;;;;;;;0.82;0.60;;;;;;;10.58;58.95;96843.59;4975550;28;20428;-75
2023/11/04 04:08:58;;;;;;;3.80;0.82;;;;;;;10.59;58.65;96840.00;4975289;28;20117;-77
2023/11/04 04:11:25;;;;;;;1.27;0.47;;;;;;;10.60;58.93;96846.06;4975245;28;20113;-76
2023/11/04 04:13:51;;;;;;;1.50;0.63;;;;;;;10.61;58.97;96847.75;4975168;28;20046;-76
2023/11/04 04:16:18;;;;;;;1.58;0.70;;;;;;;10.61;59.05;96837.22;4974075;28;20151;-77
2023/11/04 04:18:45;;;;;;;2.63;0.80;;;;;;;10.62;59.07;96842.28;4974007;28;20087;-75
2023/11/04 04:21:15;;;;;;;3.10;0.60;;;;;;;10.61;59.13;96843.28;4975101;28;20062;-76
2023/11/04 04:23:43;;;;;;;3.55;0.80;;;;;;;10.64;59.13;96839.50;4974963;28;20459;-76
2023/11/04 04:26:16;;;;;;;0.82;0.50;;;;;;;10.61;59.20;96837.22;4973643;28;20109;-77
2023/11/04 04:28:43;;;;;;;;;;;;;;;10.65;59.24;96843.81;4974258;28;20113;-76
2023/11/04 04:31:09;;;;;;;1.48;0.65;;;;;;;10.68;59.01;96841.66;4974567;28;20366;-76
2023/11/04 04:33:36;;;;;;;1.80;0.88;;;;;;;10.67;58.99;96836.56;4974889;28;20074;-76
2023/11/04 04:36:03;;;;;;;1.40;0.40;;;;;;;10.67;59.11;96839.19;4973598;28;20061;-76
2023/11/04 04:38:30;;;;;;;4.07;0.70;;;;;;;10.67;59.30;96839.19;4974739;28;20058;-77
2023/11/04 04:40:57;;;;;;;1.45;0.50;;;;;;;10.66;59.33;96833.09;4974617;28;20089;-76
2023/11/04 04:43:24;;;;;;;0.85;0.40;;;;;;;10.66;59.47;96827.03;4974858;28;20050;-76
2023/11/04 04:45:50;;;;;;;0.65;0.50;;;;;;;10.65;59.50;96828.84;4974880;28;20061;-76
2023/11/04 04:48:17;;;;;;;1.45;0.75;;;;;;;10.66;59.61;96824.41;4974544;28;20054;-76
2023/11/04 04:50:43;;;;;;;1.95;0.82;;;;;;;10.65;59.60;96815.69;4973191;28;20508;-77
2023/11/04 04:53:10;;;;;;;1.10;0.65;;;;;;;10.66;59.79;96827.84;4974407;28;20070;-77
2023/11/04 04:55:37;;;;;;;1.10;0.60;;;;;;;10.66;59.68;96812.06;4974795;28;20051;-76
2023/11/04 04:58:03;;;;;;;3.20;0.50;;;;;;;10.66;59.74;96806.78;4973296;28;20129;-77
2023/11/04 05:00:30;;;;;;;0.50;0.50;;;;;;;10.67;59.86;96810.25;4974263;28;20122;-76
2023/11/04 05:02:58;;;;;;;2.70;0.60;;;;;;;10.68;59.73;96804.00;4974332;28;20487;-77
2023/11/04 05:05:25;;;;;;;3.47;0.68;;;;;;;10.69;59.72;96808.28;4974590;28;20094;-76
2023/11/04 05:07:52;;;;;;;0.85;0.60;;;;;;;10.71;59.82;96806.31;4974179;28;20047;-76
2023/11/04 05:10:19;;;;;;;1.73;0.60;;;;;;;10.72;59.63;96804.53;4974095;28;20051;-76
2023/11/04 05:12:45;;;;;;;1.02;0.57;;;;;;;10.73;59.86;96799.06;4974110;28;20054;-76
2023/11/04 05:15:12;;;;;;;2.03;0.50;;;;;;;10.76;59.68;96797.97;4974301;28;20145;-76
2023/11/04 05:17:39;;;;;;;1.98;0.65;;;;;;;10.77;59.87;96787.25;4974192;28;20051;-76
2023/11/04 05:20:07;;;;;;;1.75;0.52;;;;;;;10.80;59.82;96792.19;4973960;28;20062;-76
2023/11/04 05:22:34;;;;;;;0.85;0.65;;;;;;;10.81;59.79;96780.69;4973023;28;20141;-76
2023/11/04 05:25:03;;;;;;;2.78;0.60;;;;;;;10.85;59.84;96783.00;4974197;28;20047;-76
2023/11/04 05:27:30;;;;;;;1.38;0.38;;;;;;;10.87;59.81;96781.84;4973904;28;20047;-77
2023/11/04 05:29:57;;;;;;;1.75;0.70;;;;;;;10.90;59.54;96788.59;4973694;28;20511;-76
2023/11/04 05:32:23;;;;;;;3.72;0.68;;;;;;;10.89;59.43;96779.88;4973734;28;20479;-76
2023/11/04 05:34:50;;;;;;;0.98;0.65;;;;;;;10.90;59.42;96773.63;4973694;28;20058;-76
2023/11/04 05:37:17;;;;;;;1.83;0.68;;;;;;;10.91;59.40;96772.63;4972737;28;20488;-76
2023/11/04 05:39:44;;;;;;;1.08;0.50;;;;;;;10.92;59.40;96766.38;4972168;28;20054;-76
2023/11/04 05:42:11;;;;;;;1.52;0.85;;;;;;;10.93;59.59;96762.78;4973498;28;20054;-77
2023/11/04 05:44:37;;;;;;;1.40;0.40;;;;;;;10.94;59.48;96761.78;4973380;28;20484;-76
2023/11/04 05:47:04;;;;;;;1.33;0.57;;;;;;;10.95;59.46;96755.53;4973365;28;20061;-76
2023/11/04 05:49:30;;;;;;;1.55;0.60;;;;;;;10.97;59.40;96760.63;4973014;28;20187;-76
2023/11/04 05:51:57;;;;;;;2.53;1.15;;;;;;;10.99;59.33;96763.91;4973748;28;20393;-76
2023/11/04 05:54:24;;;;;;;1.35;0.52;;;;;;;11.01;59.28;96758.47;4973491;28;20133;-76
2023/11/04 05:56:50;;;;;;;0.88;0.60;;;;;;;11.03;59.23;96756.53;4973497;28;20054;-75
2023/11/04 05:59:17;;;;;;;0.82;0.70;;;;;;;11.03;59.17;96762.59;4973372;28;20460;-76
2023/11/04 06:01:43;;;;;;;1.08;0.50;;;;;;;11.07;59.14;96768.38;4973103;28;20061;-76
2023/11/04 06:04:10;;;;;;;1.23;0.65;;;;;;;11.07;59.30;96773.63;4973230;28;20471;-76
2023/11/04 06:06:37;;;;;;;0.77;0.63;;;;;;;11.07;59.13;96763.91;4972226;28;20047;-76
2023/11/04 06:09:03;;;;;;;1.42;0.47;;;;;;;11.07;59.15;96763.91;4972315;28;20050;-76
2023/11/04 06:11:30;;;;;;;1.00;0.50;;;;;;;11.07;59.22;96749.94;4972529;28;20659;-76
2023/11/04 06:13:56;;;;;;;0.93;0.50;;;;;;;11.06;59.25;96749.09;4973108;28;20105;-76
2023/11/04 06:16:23;;;;;;;0.88;0.50;;;;;;;11.05;59.00;96750.09;4971702;28;20536;-76
2023/11/04 06:18:49;;;;;;;2.70;0.70;;;;;;;11.04;59.33;96753.72;4972864;28;20059;-76
2023/11/04 06:21:16;;;;;;;0.57;0.40;;;;;;;11.04;59.26;96750.25;4971754;28;20403;-76
2023/11/04 06:23:43;;;;;;;0.80;0.50;;;;;;;11.06;59.24;96746.47;4972736;28;20051;-76
2023/11/04 06:26:10;;;;;;;4.72;0.63;;;;;;;11.05;59.28;96744.84;4972751;28;20057;-76
2023/11/04 06:28:36;;;;;;;0.95;0.50;;;;;;;11.07;59.37;96740.22;4972596;28;20106;-77
2023/11/04 06:31:10;;;;;;;0.80;0.50;;;;;;;11.05;59.48;96750.09;4972240;28;20055;-76
2023/11/04 06:33:36;;;;;;;2.53;0.95;;;;;;;11.10;59.37;96746.97;4973064;28;20057;-77
2023/11/04 06:36:04;;;;;;;1.35;0.47;;;;;;;11.11;59.44;96732.00;4972563;28;20051;-75
2023/11/04 06:38:31;;;;;;;0.57;0.50;;;;;;;11.14;59.32;96739.56;4972662;28;20094;-75
2023/11/04 06:40:57;;;;;;;1.70;0.50;;;;;;;11.15;59.32;96733.31;4972298;28;20101;-76
2023/11/04 06:43:28;;;;;;;0.80;0.60;;;;;;;11.15;59.31;96731.50;4972374;28;20055;-76
2023/11/04 06:45:54;;;;;;;2.03;0.60;;;;;;;11.17;59.25;96728.69;4972106;28;20392;-76
2023/11/04 06:48:21;;;;;;;1.17;0.50;;;;;;;11.17;59.22;96726.06;4972441;28;20447;-76
2023/11/04 06:50:48;;;;;;;1.80;0.80;;;;;;;11.17;59.22;96720.78;4972146;28;20051;-76
2023/11/04 06:53:14;;;;;;;3.05;0.70;;;;;;;11.17;59.18;96718.16;4972345;28;20105;-76
2023/11/04 06:55:41;;;;;;;3.47;0.75;;;;;;;11.18;59.33;96717.19;4972079;28;20491;-76
2023/11/04 06:58:07;;;;;;;1.20;0.55;;;;;;;11.19;59.47;96732.00;4972084;28;20117;-77
2023/11/04 07:00:34;;;;;;;5.70;0.93;;;;;;;11.20;59.43;96715.19;4972164;28;20141;-76
2023/11/04 07:03:00;;;;;;;0.50;0.40;;;;;;;11.20;59.26;96716.03;4972477;28;20066;-76
2023/11/04 07:05:27;;;;;;;1.27;0.63;;;;;;;11.21;59.30;96712.41;4972274;28;20085;-76
2023/11/04 07:07:54;;;;;;;1.67;0.90;;;;;;;11.21;59.28;96714.19;4971969;28;20126;-77
2023/11/04 07:10:20;;;;;;;3.13;0.50;;;;;;;11.22;59.53;96718.50;4971892;28;20050;-77
2023/11/04 07:12:46;;;;;;;0.80;0.52;;;;;;;11.24;59.54;96713.03;4971926;28;20134;-77
2023/11/04 07:15:13;;;;;;;1.35;0.70;;;;;;;11.24;59.64;96705.97;4971038;28;20055;-77
2023/11/04 07:17:40;;;;;;;0.82;0.60;;;;;;;11.27;59.72;96707.44;4970380;28;20070;-77
2023/11/04 07:20:10;;;;;;;1.08;0.63;;;;;;;11.29;59.77;96708.94;4971927;28;20055;-76
2023/11/04 07:22:37;;;;;;;1.27;0.70;;;;;;;11.32;59.62;96708.59;4970901;28;20051;-76
2023/11/04 07:25:04;;;;;;;1.48;0.75;;;;;;;11.36;59.52;96703.00;4974010;28;20861;-76
2023/11/04 07:27:30;;;;;;;1.83;0.60;;;;;;;11.37;59.50;96708.09;4975320;28;20050;-76
2023/11/04 07:29:57;;;;;;;2.03;0.70;;;;;;;11.40;59.56;96709.59;4975148;28;20135;-77
2023/11/04 07:32:24;;;;;;;1.60;0.73;;;;;;;11.40;59.45;96706.94;4975170;28;20113;-77
2023/11/04 07:34:50;;;;;;;0.95;0.60;;;;;;;11.40;59.34;96699.03;4974541;28;20086;-76
2023/11/04 07:37:17;;;;;;;1.20;0.60;;;;;;;11.39;59.24;96703.47;4975793;28;20058;-76
2023/11/04 07:39:44;;;;;;;1.00;0.60;;;;;;;11.40;59.35;96696.41;4974158;28;20050;-76
2023/11/04 07:42:11;;;;;;;0.50;0.50;;;;;;;11.40;59.50;96699.84;4975730;28;20082;-77
2023/11/04 07:44:38;;;;;;;3.40;0.75;;;;;;;11.41;59.42;96692.78;4975697;28;20050;-76
2023/11/04 07:47:05;;;;;;;0.70;0.50;;;;;;;11.42;59.41;96686.50;4975617;28;20055;-77
2023/11/04 07:49:31;;;;;;;2.60;0.60;;;;;;;11.43;59.43;96693.41;4975282;28;20105;-76
2023/11/04 07:51:58;;;;;;;3.85;0.60;;;;;;;11.44;59.58;96688.00;4975653;28;20066;-75
2023/11/04 07:54:25;;;;;;;1.10;0.60;;;;;;;11.47;59.48;96684.19;4974187;28;20063;-77
2023/11/04 07:56:52;;;;;;;2.28;0.80;;;;;;;11.49;59.55;96689.28;4975392;28;20113;-76
2023/11/04 07:59:19;;;;;;;0.93;0.60;;;;;;;11.50;59.69;96681.22;4975210;28;20105;-77
2023/11/04 08:01:45;;;;;;;1.27;0.50;;;;;;;11.52;59.45;96681.91;4975183;28;20167;-76
2023/11/04 08:04:12;;;;;;;1.75;0.70;;;;;;;11.54;59.42;96685.16;4975252;28;20050;-76
2023/11/04 08:06:38;;;;;;;0.95;0.60;;;;;;;11.56;59.68;96683.16;4975313;28;20061;-76
2023/11/04 08:09:06;;;;;;;0.43;0.40;;;;;;;11.57;59.64;96684.00;4975154;28;20057;-76
2023/11/04 08:11:33;;;;;;;3.08;0.60;;;;;;;11.59;59.64;96680.19;4975046;28;20663;-76
2023/11/04 08:13:59;;;;;;;1.67;0.60;;;;;;;11.61;59.67;96682.66;4974033;28;20109;-76
2023/11/04 08:16:26;;;;;;;0.82;0.60;;;;;;;11.64;59.65;96676.22;4973881;28;20050;-76
2023/11/04 08:18:52;;;;;;;0.85;0.60;;;;;;;11.65;59.72;96672.59;4975241;28;20046;-76
2023/11/04 08:21:19;;;;;;;0.70;0.52;;;;;;;11.67;59.46;96670.63;4974132;28;20047;-76
2023/11/04 08:23:46;;;;;;;0.68;0.63;;;;;;;11.69;59.60;96671.28;4974196;28;20057;-76
2023/11/04 08:26:12;;;;;;;3.00;0.63;;;;;;;11.70;59.63;96670.31;4975574;28;20051;-77
2023/11/04 08:28:39;;;;;;;2.47;1.23;;;;;;;11.70;59.70;96663.19;4975180;28;20061;-76
2023/11/04 08:31:06;;;;;;;1.58;0.70;;;;;;;11.73;59.65;96664.66;4974566;28;20051;-76
2023/11/04 08:33:32;;;;;;;1.30;0.63;;;;;;;11.76;59.54;96664.31;4973586;28;20137;-76
2023/11/04 08:35:59;;;;;;;1.35;0.60;;;;;;;11.77;59.70;96658.06;4974227;28;20101;-77
2023/11/04 08:38:26;;;;;;;1.83;0.70;;;;;;;11.79;59.66;96648.19;4974447;28;20047;-77
2023/11/04 08:40:52;;;;;;;2.20;0.70;;;;;;;11.81;59.50;96654.09;4973346;28;20058;-76
2023/11/04 08:43:19;;;;;;;0.85;0.65;;;;;;;11.83;59.56;96649.47;4974521;28;20059;-76
2023/11/04 08:45:45;;;;;;;1.70;0.65;;;;;;;11.87;59.83;96642.03;4974340;28;20484;-76
2023/11/04 08:48:12;;;;;;;1.58;0.75;;;;;;;11.90;59.88;96636.44;4974195;28;20051;-76
2023/11/04 08:50:39;;;;;;;0.85;0.57;;;;;;;11.96;59.91;96645.47;4973983;28;20047;-76
2023/11/04 08:53:05;;;;;;;2.95;0.60;;;;;;;12.01;59.70;96643.13;4974473;28;20058;-76
2023/11/04 08:55:32;;;;;;;1.95;0.52;;;;;;;12.05;59.80;96628.63;4972972;28;20055;-77
2023/11/04 08:57:59;;;;;;;3.45;0.80;;;;;;;12.11;59.61;96637.63;4974164;28;20389;-77
2023/11/04 09:00:26;;;;;;;2.20;0.52;;;;;;;12.15;59.67;96636.28;4974067;28;20058;-76
2023/11/04 09:02:53;;;;;;;1.58;0.63;;;;;;;12.20;59.48;96630.50;4974080;28;20047;-75
2023/11/04 09:05:19;;;;;;;1.17;0.45;;;;;;;12.23;59.22;96630.97;4973017;28;20385;-77
2023/11/04 09:07:57;;;;;;;1.33;0.70;;;;;;;12.26;59.03;96613.97;4974097;28;20082;-77
2023/11/04 09:10:23;;;;;;;2.05;0.63;;;;;;;12.29;58.98;96602.28;4973835;28;20051;-76
2023/11/04 09:12:50;;;;;;;1.23;0.40;;;;;;;12.31;58.99;96600.25;4974058;28;20109;-76
2023/11/04 09:15:16;;;;;;;1.25;0.52;;;;;;;12.33;59.26;96600.88;4973896;28;20050;-77
2023/11/04 09:17:43;;;;;;;0.85;0.57;;;;;;;12.35;59.33;96591.84;4973723;28;20050;-76
2023/11/04 09:20:10;;;;;;;0.70;0.47;;;;;;;12.40;59.19;96596.56;4973615;28;20586;-76
2023/11/04 09:22:37;;;;;;;1.67;0.70;;;;;;;12.45;59.25;96596.03;4973940;28;20463;-76
2023/11/04 09:25:05;;;;;;;1.05;0.40;;;;;;;12.48;58.98;96596.50;4973754;28;20109;-76
2023/11/04 09:27:32;;;;;;;1.30;0.68;;;;;;;12.50;58.80;96594.50;4973692;28;20134;-76
2023/11/04 09:29:58;;;;;;;5.03;0.70;;;;;;;12.53;58.90;96593.34;4973600;28;20051;-76
2023/11/04 09:32:26;;;;;;;1.30;0.60;;;;;;;12.55;58.66;96593.97;4973396;28;20061;-76
2023/11/04 09:34:52;;;;;;;1.02;0.45;;;;;;;12.58;58.71;96588.34;4973687;28;20058;-76
2023/11/04 09:37:21;;;;;;;1.10;0.50;;;;;;;12.60;58.82;96583.69;4973294;28;20566;-76
2023/11/04 09:39:47;;;;;;;0.40;0.40;;;;;;;12.62;58.81;96570.31;4972242;28;20062;-76
2023/11/04 09:42:14;;;;;;;0.50;0.50;;;;;;;12.66;58.95;96574.22;4973549;28;20053;-76
2023/11/04 09:44:41;;;;;;;1.95;0.80;;;;;;;12.68;58.79;96574.88;4972356;28;20080;-76
2023/11/04 09:47:07;;;;;;;1.00;0.50;;;;;;;12.71;58.70;96569.22;4972532;28;20118;-76
2023/11/04 09:49:34;;;;;;;2.05;0.60;;;;;;;12.77;58.79;96575.63;4972970;28;20043;-76
2023/11/04 09:52:02;;;;;;;1.08;0.77;;;;;;;12.80;58.46;96564.69;4973220;28;20171;-75
2023/11/04 09:54:30;;;;;;;1.67;0.60;;;;;;;12.83;58.57;96566.16;4973229;28;20050;-77
2023/11/04 09:56:57;;;;;;;0.80;0.50;;;;;;;12.84;58.63;96568.63;4973030;28;20051;-77
2023/11/04 09:59:25;;;;;;;0.70;0.63;;;;;;;12.87;58.42;96565.59;4973000;28;20051;-75
2023/11/04 10:01:52;;;;;;;1.38;0.70;;;;;;;12.91;58.48;96563.44;4973028;28;20102;-76
2023/11/04 10:04:18;;;;;;;1.90;0.63;;;;;;;12.94;58.44;96556.97;4973111;28;20050;-76
2023/11/04 10:06:47;;;;;;;0.82;0.43;;;;;;;12.95;58.20;96558.59;4972985;28;20043;-76
2023/11/04 10:09:13;;;;;;;0.68;0.60;;;;;;;12.96;58.12;96554.94;4973105;28;20058;-76
2023/11/04 10:11:40;;;;;;;0.50;0.45;;;;;;;12.97;58.24;96546.06;4972629;28;20051;-75
2023/11/04 10:14:07;;;;;;;1.08;0.57;;;;;;;12.97;58.25;96546.06;4972799;28;20101;-76
2023/11/04 10:16:33;;;;;;;0.85;0.50;;;;;;;12.96;58.30;96536.47;4972654;28;20491;-76
2023/11/04 10:19:00;;;;;;;0.55;0.45;;;;;;;12.97;58.11;96532.84;4972716;28;20444;-76
2023/11/04 10:21:26;;;;;;;1.27;0.57;;;;;;;12.99;58.20;96528.19;4972513;28;20542;-76
2023/11/04 10:23:54;;;;;;;1.77;0.70;;;;;;;12.99;58.43;96523.75;4971408;28;20094;-77
2023/11/04 10:26:27;;;;;;;3.08;0.70;;;;;;;12.99;58.40;96518.47;4972609;28;20051;-75
2023/11/04 10:28:54;;;;;;;;;;;;;;;12.98;58.48;96513.38;4972983;28;20530;-77
2023/11/04 10:31:24;;;;;;;1.25;0.60;;;;;;;13.01;58.21;96497.16;4972163;28;20441;-77
2023/11/04 10:33:55;;;;;;;1.13;0.55;;;;;;;12.95;58.63;96496.06;4971407;28;20113;-76
2023/11/04 10:36:23;;;;;;;1.42;0.93;;;;;;;12.94;58.91;96489.16;4972423;28;20051;-76
2023/11/04 10:38:56;;;;;;;1.17;0.68;;;;;;;12.93;59.15;96476.16;4972570;28;20046;-76
2023/11/04 10:42:10;;;;;;;2.03;0.55;;;;;;;12.92;59.52;96467.38;4972331;28;20047;-76
2023/11/04 10:44:39;;;;;;;;;;;;;;;13.00;59.59;96462.00;4971552;28;20062;-77
2023/11/04 10:47:20;;;;;;;1.58;0.68;;;;;;;13.11;60.13;96454.59;4972250;28;19926;-76
2023/11/04 10:50:07;;;;;;;0.80;0.60;;;;;;;13.16;60.05;96445.13;4972272;28;20516;-77
2023/11/04 10:52:59;;;;;;;2.28;0.85;;;;;;;13.26;60.36;96439.56;4972299;28;20051;-75
2023/11/04 10:55:31;;;;;;;0.93;0.70;;;;;;;13.40;60.72;96418.56;4972154;28;20090;-75
2023/11/04 10:58:03;;;;;;;5.63;1.02;;;;;;;13.53;60.35;96418.69;4971893;28;20130;-76
2023/11/04 11:00:31;;;;;;;0.95;0.80;;;;;;;13.67;59.97;96414.38;4972255;28;20054;-76
2023/11/04 11:02:59;;;;;;;0.85;0.70;;;;;;;13.79;59.17;96416.47;4972342;28;20082;-75
2023/11/04 11:05:28;;;;;;;1.85;0.65;;;;;;;13.85;58.95;96404.31;4972102;28;20401;-76
2023/11/04 11:07:55;;;;;;;2.15;0.70;;;;;;;13.89;58.58;96410.84;4972075;28;20410;-75
2023/11/04 11:10:31;;;;;;;1.10;0.60;;;;;;;13.90;58.03;96401.91;4971734;28;20066;-76
2023/11/04 11:13:00;;;;;;;2.17;0.70;;;;;;;13.93;58.47;96383.84;4972338;28;20057;-77
2023/11/04 11:15:29;;;;;;;6.30;1.00;;;;;;;13.95;58.39;96381.03;4970929;28;20138;-77
2023/11/04 11:17:56;;;;;;;1.17;0.80;;;;;;;13.95;58.27;96388.97;4972182;28;20054;-75
2023/11/04 11:20:27;;;;;;;3.58;0.90;;;;;;;13.96;57.88;96381.81;4971721;28;20073;-77
2023/11/04 11:22:56;;;;;;;1.45;0.73;;;;;;;13.96;58.12;96382.66;4971893;28;20051;-76
2023/11/04 11:25:37;;;;;;;1.40;0.60;;;;;;;13.94;57.91;96371.44;4972080;28;20054;-77
2023/11/04 11:28:17;;;;;;;0.80;0.80;;;;;;;13.92;57.75;96369.00;4971986;28;20523;-76
2023/11/04 11:30:54;;;;;;;0.60;0.60;;;;;;;13.94;57.71;96366.97;4971711;28;20046;-76
2023/11/04 11:33:27;;;;;;;0.70;0.70;;;;;;;13.92;57.47;96365.53;4971742;28;20051;-76
2023/11/04 11:36:01;;;;;;;0.80;0.70;;;;;;;13.92;57.41;96362.91;4972116;28;20814;-76